14°C Temp
10°C Dewpoint
77% Humidity
Temperature
19 KM/H
12 MPH
10 KTS
50°
North East

Wind Speed
Mostly Scattered
Clouds
Pressure 1018.92 (hPa) - 30.09 (in)
Visibility 6.2 (mi) - 10.0 (km)

Current Conditions
EKCH
Location 55(km)
Metar :EKCH 180820Z AUTO 05010KT 9999 SCT017/// BKN039/// BKN064/// 14/10 Q1019 NOSIG
Sat 18th September 10:20 am

Airport
  Metar Aviation API Data Provided by https://www.checkwx.com/ PHP scripts by weather34.com ©2021